Neligh, NE

12:32 AM CDT on June 28, 2017 (GMT -0500)
Neligh | | Change Station
Active Advisory: Severe Thunderstorm Watch

Elev 1798 ft 42.13 °N, 98.03 °W | Updated 19 seconds ago

Rain
Rain
70.2 °F
Feels Like 73 °F
N
5.0
Wind Variable Wind from SW
Gusts 16.0 mph

Today
High -- | Low -- °F
--% Chance of Precip.
Yesterday
High -- | Low -- °F
Precip. -- in
Pressure 29.74 in
Visibility 10.0 miles
Clouds Scattered Clouds 9000 ft
Overcast 11000 ft
Heat Index 73 °F
Dew Point 62 °F
Humidity 74%
Rainfall 0.00 in
Snow Depth Not available.
5:58 AM 9:12 PM
Waxing Crescent, 22% visible
METAR KBVN 280515Z AUTO 24012G16KT 10SM -VCTSRA SCT090 OVC110 20/16 A2974 RMK AO2 LTG DSNT ALQS P0001 T01990161
Pressure 29.74 in
Visibility 10.0 miles
Clouds Scattered Clouds 9000 ft
Overcast 11000 ft
Heat Index 73 °F
Dew Point 62 °F
Humidity 74%
Rainfall 0.00 in
Snow Depth Not available.
5:58 AM 9:12 PM
Waxing Crescent, 22% visible
METAR KBVN 280515Z AUTO 24012G16KT 10SM -VCTSRA SCT090 OVC110 20/16 A2974 RMK AO2 LTG DSNT ALQS P0001 T01990161

Get Your Daily Forecast Email!

Thanks for signing up!

Be on the lookout for a verification email in your inbox.

You'll start receiving severe weather alerts in your inbox..

×

10-Day Weather Forecast

Almanac

Astronomy

Jun. 28, 2017 Rise Set
Actual Time
Civil Twilight
Nautical Twilight
Astronomical Twilight
Moon
Length of Visible Light
Length of Day
Tomorrow will be .
, % of the Moon is Illuminated

Today's Extremes

State Highs State Lows

Community

WunderPhotos

Category 6

Welcome to Category 6. This is the collective home for Weather Underground's featured writeups by Dr. Jeff Masters (right), Bob Henson (left), Chris Burt, and other regular contributors.

Nearby

Air Quality

  Air Quality AQ Index Pollutant
Not available.

Snow Depth

Station Depth Elevation

Earthquake Activity

City Distance Mag. Time & Date
Minimum magnitude displayed is 2.5.

Coastal Water Temperatures

Place Temperature

Stations

Nearby Weather Stations

Station Location Temp. Windchill Dew Point Humidity Wind Precip. Elev Updated Type
                   

Watches & Warnings

Severe Thunderstorm Watch
Issued: 12:28 AM CDT Jun. 28, 2017 – National Weather Service


Severe Thunderstorm Watch 374 remains valid until 2 am CDT early
this morning for the following areas

In Nebraska this watch includes 13 counties

In east central Nebraska

Butler

In northeast Nebraska

Antelope Boone Cedar
Colfax Knox Madison
Pierce Platte Stanton
Wayne

In southeast Nebraska

Saline Seward

This includes the cities of Albion, Bloomfield, Coleridge,
Columbus, Creighton, Crete, Crofton, David City, Elgin,
Hartington, Laurel, Milford, Neligh, Niobrara, Norfolk, Osmond,
Pierce, Plainview, Randolph, Schuyler, Seward, St. Edward,
Stanton, Verdigre, Wausa, Wayne, and Wilber.